sensor_id;sensor_type;location;lat;lon;timestamp;P1;durP1;ratioP1;P2;durP2;ratioP2
55879;SDS011;41802;51.564;-1.838;2023-07-20T00:02:35;5.25;;;1.38;;
55879;SDS011;41802;51.564;-1.838;2023-07-20T00:05:03;4.18;;;1.30;;
55879;SDS011;41802;51.564;-1.838;2023-07-20T00:07:35;5.13;;;1.40;;
55879;SDS011;41802;51.564;-1.838;2023-07-20T00:10:02;4.72;;;1.40;;
55879;SDS011;41802;51.564;-1.838;2023-07-20T00:12:30;5.10;;;1.20;;
55879;SDS011;41802;51.564;-1.838;2023-07-20T00:14:58;5.15;;;1.60;;
55879;SDS011;41802;51.564;-1.838;2023-07-20T00:17:26;4.25;;;1.20;;
55879;SDS011;41802;51.564;-1.838;2023-07-20T00:19:56;4.70;;;1.80;;
55879;SDS011;41802;51.564;-1.838;2023-07-20T00:22:28;4.45;;;1.65;;
55879;SDS011;41802;51.564;-1.838;2023-07-20T00:24:56;5.43;;;1.80;;
55879;SDS011;41802;51.564;-1.838;2023-07-20T00:27:24;4.45;;;1.60;;
55879;SDS011;41802;51.564;-1.838;2023-07-20T00:29:52;5.82;;;1.85;;
55879;SDS011;41802;51.564;-1.838;2023-07-20T00:32:19;5.50;;;1.50;;
55879;SDS011;41802;51.564;-1.838;2023-07-20T00:34:47;5.50;;;1.48;;
55879;SDS011;41802;51.564;-1.838;2023-07-20T00:37:16;6.03;;;1.53;;
55879;SDS011;41802;51.564;-1.838;2023-07-20T00:39:44;7.20;;;2.20;;
55879;SDS011;41802;51.564;-1.838;2023-07-20T00:42:12;4.90;;;1.80;;
55879;SDS011;41802;51.564;-1.838;2023-07-20T00:44:40;5.40;;;1.80;;
55879;SDS011;41802;51.564;-1.838;2023-07-20T00:47:07;4.72;;;1.70;;
55879;SDS011;41802;51.564;-1.838;2023-07-20T00:49:36;4.30;;;1.60;;
55879;SDS011;41802;51.564;-1.838;2023-07-20T00:52:04;5.20;;;1.55;;
55879;SDS011;41802;51.564;-1.838;2023-07-20T00:54:38;6.55;;;1.83;;
55879;SDS011;41802;51.564;-1.838;2023-07-20T00:57:05;4.45;;;1.42;;
55879;SDS011;41802;51.564;-1.838;2023-07-20T00:59:34;5.05;;;1.65;;
55879;SDS011;41802;51.564;-1.838;2023-07-20T01:02:02;8.30;;;2.00;;
55879;SDS011;41802;51.564;-1.838;2023-07-20T01:04:32;4.60;;;1.58;;
55879;SDS011;41802;51.564;-1.838;2023-07-20T01:07:01;7.75;;;1.95;;
55879;SDS011;41802;51.564;-1.838;2023-07-20T01:09:38;6.85;;;1.80;;
55879;SDS011;41802;51.564;-1.838;2023-07-20T01:12:09;4.55;;;1.70;;
55879;SDS011;41802;51.564;-1.838;2023-07-20T01:14:39;5.73;;;2.30;;
55879;SDS011;41802;51.564;-1.838;2023-07-20T01:17:07;6.25;;;2.00;;
55879;SDS011;41802;51.564;-1.838;2023-07-20T01:19:35;5.55;;;1.85;;
55879;SDS011;41802;51.564;-1.838;2023-07-20T01:22:03;6.03;;;1.95;;
55879;SDS011;41802;51.564;-1.838;2023-07-20T01:24:56;5.32;;;1.92;;
55879;SDS011;41802;51.564;-1.838;2023-07-20T01:30:28;5.70;;;2.20;;
55879;SDS011;41802;51.564;-1.838;2023-07-20T01:33:05;5.05;;;2.20;;
55879;SDS011;41802;51.564;-1.838;2023-07-20T01:35:37;7.53;;;1.90;;
55879;SDS011;41802;51.564;-1.838;2023-07-20T01:38:07;6.85;;;2.08;;
55879;SDS011;41802;51.564;-1.838;2023-07-20T01:40:35;6.23;;;2.27;;
55879;SDS011;41802;51.564;-1.838;2023-07-20T01:43:03;5.70;;;2.38;;
55879;SDS011;41802;51.564;-1.838;2023-07-20T01:45:32;7.22;;;2.00;;
55879;SDS011;41802;51.564;-1.838;2023-07-20T01:48:01;5.65;;;1.55;;
55879;SDS011;41802;51.564;-1.838;2023-07-20T01:50:31;6.13;;;1.95;;
55879;SDS011;41802;51.564;-1.838;2023-07-20T01:53:01;5.33;;;2.10;;
55879;SDS011;41802;51.564;-1.838;2023-07-20T01:55:28;5.18;;;1.73;;
55879;SDS011;41802;51.564;-1.838;2023-07-20T01:57:56;8.27;;;2.10;;
55879;SDS011;41802;51.564;-1.838;2023-07-20T02:00:25;4.93;;;1.88;;
55879;SDS011;41802;51.564;-1.838;2023-07-20T02:02:53;5.78;;;1.65;;
55879;SDS011;41802;51.564;-1.838;2023-07-20T02:05:21;6.43;;;2.03;;
55879;SDS011;41802;51.564;-1.838;2023-07-20T02:07:50;5.53;;;1.80;;
55879;SDS011;41802;51.564;-1.838;2023-07-20T02:10:18;4.93;;;1.40;;
55879;SDS011;41802;51.564;-1.838;2023-07-20T02:12:45;6.35;;;1.60;;
55879;SDS011;41802;51.564;-1.838;2023-07-20T02:15:14;4.75;;;1.70;;
55879;SDS011;41802;51.564;-1.838;2023-07-20T02:17:42;4.60;;;1.80;;
55879;SDS011;41802;51.564;-1.838;2023-07-20T02:20:10;6.05;;;2.13;;
55879;SDS011;41802;51.564;-1.838;2023-07-20T02:22:39;7.07;;;2.30;;
55879;SDS011;41802;51.564;-1.838;2023-07-20T02:25:10;6.57;;;1.90;;
55879;SDS011;41802;51.564;-1.838;2023-07-20T02:27:38;5.70;;;1.90;;
55879;SDS011;41802;51.564;-1.838;2023-07-20T02:30:06;5.33;;;1.80;;
55879;SDS011;41802;51.564;-1.838;2023-07-20T02:32:36;7.00;;;1.80;;
55879;SDS011;41802;51.564;-1.838;2023-07-20T02:35:04;4.45;;;1.50;;
55879;SDS011;41802;51.564;-1.838;2023-07-20T02:37:33;5.25;;;1.67;;
55879;SDS011;41802;51.564;-1.838;2023-07-20T02:40:01;5.18;;;1.52;;
55879;SDS011;41802;51.564;-1.838;2023-07-20T02:42:31;4.80;;;1.93;;
55879;SDS011;41802;51.564;-1.838;2023-07-20T02:44:59;6.43;;;1.90;;
55879;SDS011;41802;51.564;-1.838;2023-07-20T02:47:27;8.98;;;2.08;;
55879;SDS011;41802;51.564;-1.838;2023-07-20T02:49:55;5.47;;;2.00;;
55879;SDS011;41802;51.564;-1.838;2023-07-20T02:52:22;6.75;;;2.03;;
55879;SDS011;41802;51.564;-1.838;2023-07-20T02:54:50;5.50;;;1.97;;
55879;SDS011;41802;51.564;-1.838;2023-07-20T02:57:18;5.10;;;2.03;;
55879;SDS011;41802;51.564;-1.838;2023-07-20T02:59:48;5.65;;;2.22;;
55879;SDS011;41802;51.564;-1.838;2023-07-20T03:02:18;6.20;;;1.83;;
55879;SDS011;41802;51.564;-1.838;2023-07-20T03:04:47;5.05;;;1.60;;
55879;SDS011;41802;51.564;-1.838;2023-07-20T03:07:15;6.30;;;1.90;;
55879;SDS011;41802;51.564;-1.838;2023-07-20T03:09:46;4.93;;;1.75;;
55879;SDS011;41802;51.564;-1.838;2023-07-20T03:12:15;5.32;;;2.10;;
55879;SDS011;41802;51.564;-1.838;2023-07-20T03:14:43;4.68;;;1.40;;
55879;SDS011;41802;51.564;-1.838;2023-07-20T03:17:12;4.45;;;1.45;;
55879;SDS011;41802;51.564;-1.838;2023-07-20T03:19:40;4.73;;;1.70;;
55879;SDS011;41802;51.564;-1.838;2023-07-20T03:22:07;4.45;;;1.58;;
55879;SDS011;41802;51.564;-1.838;2023-07-20T03:24:35;5.10;;;1.88;;
55879;SDS011;41802;51.564;-1.838;2023-07-20T03:27:03;6.50;;;1.88;;
55879;SDS011;41802;51.564;-1.838;2023-07-20T03:29:31;5.22;;;2.13;;
55879;SDS011;41802;51.564;-1.838;2023-07-20T03:31:59;5.63;;;2.00;;
55879;SDS011;41802;51.564;-1.838;2023-07-20T03:34:28;6.75;;;2.63;;
55879;SDS011;41802;51.564;-1.838;2023-07-20T03:36:56;11.77;;;2.80;;
55879;SDS011;41802;51.564;-1.838;2023-07-20T03:39:23;5.80;;;2.08;;
55879;SDS011;41802;51.564;-1.838;2023-07-20T03:41:51;7.30;;;1.95;;
55879;SDS011;41802;51.564;-1.838;2023-07-20T03:44:19;5.00;;;2.03;;
55879;SDS011;41802;51.564;-1.838;2023-07-20T03:46:46;6.10;;;2.00;;
55879;SDS011;41802;51.564;-1.838;2023-07-20T03:49:14;6.28;;;2.00;;
55879;SDS011;41802;51.564;-1.838;2023-07-20T03:51:50;5.20;;;2.00;;
55879;SDS011;41802;51.564;-1.838;2023-07-20T03:54:17;7.40;;;2.10;;
55879;SDS011;41802;51.564;-1.838;2023-07-20T03:56:45;5.90;;;1.97;;
55879;SDS011;41802;51.564;-1.838;2023-07-20T03:59:13;6.35;;;2.20;;
55879;SDS011;41802;51.564;-1.838;2023-07-20T04:01:42;6.00;;;2.15;;
55879;SDS011;41802;51.564;-1.838;2023-07-20T04:04:10;5.32;;;2.17;;
55879;SDS011;41802;51.564;-1.838;2023-07-20T04:06:38;5.75;;;1.95;;
55879;SDS011;41802;51.564;-1.838;2023-07-20T04:09:07;6.70;;;2.17;;
55879;SDS011;41802;51.564;-1.838;2023-07-20T04:11:34;6.43;;;2.13;;
55879;SDS011;41802;51.564;-1.838;2023-07-20T04:14:02;6.47;;;2.22;;
55879;SDS011;41802;51.564;-1.838;2023-07-20T04:16:30;6.05;;;1.83;;
55879;SDS011;41802;51.564;-1.838;2023-07-20T04:19:00;6.38;;;1.70;;
55879;SDS011;41802;51.564;-1.838;2023-07-20T04:21:27;6.30;;;2.07;;
55879;SDS011;41802;51.564;-1.838;2023-07-20T04:23:55;6.38;;;2.25;;
55879;SDS011;41802;51.564;-1.838;2023-07-20T04:26:24;6.53;;;2.03;;
55879;SDS011;41802;51.564;-1.838;2023-07-20T04:28:52;7.53;;;2.33;;
55879;SDS011;41802;51.564;-1.838;2023-07-20T04:31:19;7.53;;;2.53;;
55879;SDS011;41802;51.564;-1.838;2023-07-20T04:33:47;9.30;;;2.97;;
55879;SDS011;41802;51.564;-1.838;2023-07-20T04:36:15;5.93;;;2.28;;
55879;SDS011;41802;51.564;-1.838;2023-07-20T04:38:46;7.05;;;2.50;;
55879;SDS011;41802;51.564;-1.838;2023-07-20T04:41:14;6.45;;;2.40;;
55879;SDS011;41802;51.564;-1.838;2023-07-20T04:43:46;7.20;;;2.33;;
55879;SDS011;41802;51.564;-1.838;2023-07-20T04:46:14;6.70;;;2.40;;
55879;SDS011;41802;51.564;-1.838;2023-07-20T04:48:44;5.82;;;2.35;;
55879;SDS011;41802;51.564;-1.838;2023-07-20T04:51:11;7.47;;;2.63;;
55879;SDS011;41802;51.564;-1.838;2023-07-20T04:53:39;8.25;;;2.13;;
55879;SDS011;41802;51.564;-1.838;2023-07-20T04:56:07;8.73;;;2.50;;
55879;SDS011;41802;51.564;-1.838;2023-07-20T04:58:35;6.40;;;2.47;;
55879;SDS011;41802;51.564;-1.838;2023-07-20T05:01:04;9.18;;;2.88;;
55879;SDS011;41802;51.564;-1.838;2023-07-20T05:03:32;6.97;;;2.67;;
55879;SDS011;41802;51.564;-1.838;2023-07-20T05:06:00;6.78;;;2.28;;
55879;SDS011;41802;51.564;-1.838;2023-07-20T05:08:28;8.68;;;2.60;;
55879;SDS011;41802;51.564;-1.838;2023-07-20T05:10:56;6.50;;;2.50;;
55879;SDS011;41802;51.564;-1.838;2023-07-20T05:13:24;5.80;;;2.50;;
55879;SDS011;41802;51.564;-1.838;2023-07-20T05:15:51;6.97;;;2.30;;
55879;SDS011;41802;51.564;-1.838;2023-07-20T05:18:21;8.15;;;2.40;;
55879;SDS011;41802;51.564;-1.838;2023-07-20T05:20:49;6.57;;;2.90;;
55879;SDS011;41802;51.564;-1.838;2023-07-20T05:23:17;5.83;;;2.53;;
55879;SDS011;41802;51.564;-1.838;2023-07-20T05:25:45;6.53;;;2.67;;
55879;SDS011;41802;51.564;-1.838;2023-07-20T05:28:13;7.47;;;2.80;;
55879;SDS011;41802;51.564;-1.838;2023-07-20T05:30:41;6.70;;;2.10;;
55879;SDS011;41802;51.564;-1.838;2023-07-20T05:33:13;6.55;;;2.15;;
55879;SDS011;41802;51.564;-1.838;2023-07-20T05:35:42;6.40;;;2.80;;
55879;SDS011;41802;51.564;-1.838;2023-07-20T05:38:15;7.70;;;2.72;;
55879;SDS011;41802;51.564;-1.838;2023-07-20T05:40:43;7.35;;;2.95;;
55879;SDS011;41802;51.564;-1.838;2023-07-20T05:43:11;7.53;;;3.03;;
55879;SDS011;41802;51.564;-1.838;2023-07-20T05:45:41;8.00;;;2.88;;
55879;SDS011;41802;51.564;-1.838;2023-07-20T05:48:09;6.37;;;2.77;;
55879;SDS011;41802;51.564;-1.838;2023-07-20T05:50:37;7.22;;;3.45;;
55879;SDS011;41802;51.564;-1.838;2023-07-20T05:53:06;6.38;;;2.90;;
55879;SDS011;41802;51.564;-1.838;2023-07-20T05:55:34;6.95;;;3.15;;
55879;SDS011;41802;51.564;-1.838;2023-07-20T05:58:02;6.55;;;2.40;;
55879;SDS011;41802;51.564;-1.838;2023-07-20T06:00:30;7.93;;;2.53;;
55879;SDS011;41802;51.564;-1.838;2023-07-20T06:03:01;6.35;;;2.47;;
55879;SDS011;41802;51.564;-1.838;2023-07-20T06:05:29;7.53;;;3.30;;
55879;SDS011;41802;51.564;-1.838;2023-07-20T06:07:58;6.10;;;2.70;;
55879;SDS011;41802;51.564;-1.838;2023-07-20T06:10:28;6.10;;;2.47;;
55879;SDS011;41802;51.564;-1.838;2023-07-20T06:12:56;6.97;;;2.70;;
55879;SDS011;41802;51.564;-1.838;2023-07-20T06:15:24;6.65;;;2.28;;
55879;SDS011;41802;51.564;-1.838;2023-07-20T06:17:54;7.85;;;2.60;;
55879;SDS011;41802;51.564;-1.838;2023-07-20T06:20:24;7.22;;;2.92;;
55879;SDS011;41802;51.564;-1.838;2023-07-20T06:22:53;6.20;;;2.70;;
55879;SDS011;41802;51.564;-1.838;2023-07-20T06:25:20;6.30;;;2.53;;
55879;SDS011;41802;51.564;-1.838;2023-07-20T06:27:50;8.45;;;3.10;;
55879;SDS011;41802;51.564;-1.838;2023-07-20T06:30:18;8.18;;;2.70;;
55879;SDS011;41802;51.564;-1.838;2023-07-20T06:32:46;6.10;;;2.38;;
55879;SDS011;41802;51.564;-1.838;2023-07-20T06:35:14;8.07;;;2.88;;
55879;SDS011;41802;51.564;-1.838;2023-07-20T06:37:42;9.43;;;3.00;;
55879;SDS011;41802;51.564;-1.838;2023-07-20T06:40:10;7.82;;;2.75;;
55879;SDS011;41802;51.564;-1.838;2023-07-20T06:42:41;6.32;;;2.38;;
55879;SDS011;41802;51.564;-1.838;2023-07-20T06:45:13;9.80;;;3.00;;
55879;SDS011;41802;51.564;-1.838;2023-07-20T06:47:41;7.82;;;2.47;;
55879;SDS011;41802;51.564;-1.838;2023-07-20T06:50:14;7.77;;;3.00;;
55879;SDS011;41802;51.564;-1.838;2023-07-20T06:52:43;8.05;;;2.83;;
55879;SDS011;41802;51.564;-1.838;2023-07-20T06:55:12;6.47;;;2.60;;
55879;SDS011;41802;51.564;-1.838;2023-07-20T06:57:41;8.25;;;2.92;;
55879;SDS011;41802;51.564;-1.838;2023-07-20T07:00:15;8.20;;;2.92;;
55879;SDS011;41802;51.564;-1.838;2023-07-20T07:02:43;8.00;;;2.73;;
55879;SDS011;41802;51.564;-1.838;2023-07-20T07:05:15;7.00;;;2.50;;
55879;SDS011;41802;51.564;-1.838;2023-07-20T07:07:48;6.43;;;2.72;;
55879;SDS011;41802;51.564;-1.838;2023-07-20T07:10:16;6.75;;;2.15;;
55879;SDS011;41802;51.564;-1.838;2023-07-20T07:12:44;5.70;;;2.40;;
55879;SDS011;41802;51.564;-1.838;2023-07-20T07:15:12;5.67;;;2.07;;
55879;SDS011;41802;51.564;-1.838;2023-07-20T07:17:41;5.95;;;2.53;;
55879;SDS011;41802;51.564;-1.838;2023-07-20T07:20:10;6.43;;;2.60;;
55879;SDS011;41802;51.564;-1.838;2023-07-20T07:22:45;5.97;;;2.20;;
55879;SDS011;41802;51.564;-1.838;2023-07-20T07:25:19;5.00;;;1.92;;
55879;SDS011;41802;51.564;-1.838;2023-07-20T07:27:49;7.50;;;2.60;;
55879;SDS011;41802;51.564;-1.838;2023-07-20T07:30:18;6.43;;;2.55;;
55879;SDS011;41802;51.564;-1.838;2023-07-20T07:32:47;6.00;;;2.63;;
55879;SDS011;41802;51.564;-1.838;2023-07-20T07:35:14;7.97;;;2.40;;
55879;SDS011;41802;51.564;-1.838;2023-07-20T07:37:42;8.35;;;2.70;;
55879;SDS011;41802;51.564;-1.838;2023-07-20T07:40:31;6.07;;;2.30;;
55879;SDS011;41802;51.564;-1.838;2023-07-20T07:42:59;12.82;;;2.70;;
55879;SDS011;41802;51.564;-1.838;2023-07-20T07:45:27;6.50;;;2.20;;
55879;SDS011;41802;51.564;-1.838;2023-07-20T07:47:56;6.55;;;2.63;;
55879;SDS011;41802;51.564;-1.838;2023-07-20T07:50:24;6.32;;;2.28;;
55879;SDS011;41802;51.564;-1.838;2023-07-20T07:52:53;6.20;;;2.40;;
55879;SDS011;41802;51.564;-1.838;2023-07-20T07:55:21;5.80;;;2.15;;
55879;SDS011;41802;51.564;-1.838;2023-07-20T07:57:49;6.55;;;2.28;;
55879;SDS011;41802;51.564;-1.838;2023-07-20T08:00:18;6.00;;;1.83;;
55879;SDS011;41802;51.564;-1.838;2023-07-20T08:02:46;6.55;;;1.90;;
55879;SDS011;41802;51.564;-1.838;2023-07-20T08:05:16;4.78;;;1.65;;
55879;SDS011;41802;51.564;-1.838;2023-07-20T08:07:45;4.35;;;1.48;;
55879;SDS011;41802;51.564;-1.838;2023-07-20T08:10:13;4.17;;;1.13;;
55879;SDS011;41802;51.564;-1.838;2023-07-20T08:12:41;5.40;;;1.95;;
55879;SDS011;41802;51.564;-1.838;2023-07-20T08:15:10;5.35;;;1.65;;
55879;SDS011;41802;51.564;-1.838;2023-07-20T08:17:38;4.70;;;1.55;;
55879;SDS011;41802;51.564;-1.838;2023-07-20T08:20:07;5.28;;;1.13;;
55879;SDS011;41802;51.564;-1.838;2023-07-20T08:22:37;4.10;;;1.07;;
55879;SDS011;41802;51.564;-1.838;2023-07-20T08:25:05;4.80;;;1.17;;
55879;SDS011;41802;51.564;-1.838;2023-07-20T08:27:33;4.10;;;1.38;;
55879;SDS011;41802;51.564;-1.838;2023-07-20T08:30:07;4.97;;;1.58;;
55879;SDS011;41802;51.564;-1.838;2023-07-20T08:32:35;4.53;;;1.60;;
55879;SDS011;41802;51.564;-1.838;2023-07-20T08:35:03;4.70;;;1.40;;
55879;SDS011;41802;51.564;-1.838;2023-07-20T08:37:32;4.50;;;1.80;;
55879;SDS011;41802;51.564;-1.838;2023-07-20T08:40:02;3.90;;;1.15;;
55879;SDS011;41802;51.564;-1.838;2023-07-20T08:42:36;4.20;;;1.42;;
55879;SDS011;41802;51.564;-1.838;2023-07-20T08:45:05;7.32;;;1.58;;
55879;SDS011;41802;51.564;-1.838;2023-07-20T08:47:33;4.73;;;1.47;;
55879;SDS011;41802;51.564;-1.838;2023-07-20T08:50:02;4.90;;;1.20;;
55879;SDS011;41802;51.564;-1.838;2023-07-20T08:52:33;3.70;;;1.00;;
55879;SDS011;41802;51.564;-1.838;2023-07-20T08:55:03;4.35;;;1.40;;
55879;SDS011;41802;51.564;-1.838;2023-07-20T08:57:32;4.78;;;1.48;;
55879;SDS011;41802;51.564;-1.838;2023-07-20T09:00:01;4.70;;;1.37;;
55879;SDS011;41802;51.564;-1.838;2023-07-20T09:02:33;6.45;;;1.30;;
55879;SDS011;41802;51.564;-1.838;2023-07-20T09:05:03;4.03;;;1.20;;
55879;SDS011;41802;51.564;-1.838;2023-07-20T09:07:31;5.03;;;1.60;;
55879;SDS011;41802;51.564;-1.838;2023-07-20T09:09:59;4.68;;;1.30;;
55879;SDS011;41802;51.564;-1.838;2023-07-20T09:12:35;5.17;;;1.40;;
55879;SDS011;41802;51.564;-1.838;2023-07-20T09:15:03;5.00;;;1.50;;
55879;SDS011;41802;51.564;-1.838;2023-07-20T09:17:31;4.80;;;1.60;;
55879;SDS011;41802;51.564;-1.838;2023-07-20T09:20:01;5.03;;;1.50;;
55879;SDS011;41802;51.564;-1.838;2023-07-20T09:22:31;5.32;;;1.50;;
55879;SDS011;41802;51.564;-1.838;2023-07-20T09:24:59;4.77;;;1.43;;
55879;SDS011;41802;51.564;-1.838;2023-07-20T09:27:35;4.07;;;1.40;;
55879;SDS011;41802;51.564;-1.838;2023-07-20T09:30:04;7.60;;;1.80;;
55879;SDS011;41802;51.564;-1.838;2023-07-20T09:32:38;5.40;;;1.70;;
55879;SDS011;41802;51.564;-1.838;2023-07-20T09:35:20;6.00;;;1.90;;
55879;SDS011;41802;51.564;-1.838;2023-07-20T09:37:54;4.97;;;1.70;;
55879;SDS011;41802;51.564;-1.838;2023-07-20T09:40:25;5.40;;;1.70;;
55879;SDS011;41802;51.564;-1.838;2023-07-20T09:43:16;4.57;;;1.67;;
55879;SDS011;41802;51.564;-1.838;2023-07-20T09:45:47;5.30;;;1.70;;
55879;SDS011;41802;51.564;-1.838;2023-07-20T09:48:17;4.00;;;1.27;;
55879;SDS011;41802;51.564;-1.838;2023-07-20T09:50:51;5.60;;;1.30;;
55879;SDS011;41802;51.564;-1.838;2023-07-20T09:53:19;4.40;;;1.50;;
55879;SDS011;41802;51.564;-1.838;2023-07-20T09:55:48;5.35;;;1.65;;
55879;SDS011;41802;51.564;-1.838;2023-07-20T09:58:21;6.03;;;1.70;;
55879;SDS011;41802;51.564;-1.838;2023-07-20T10:00:50;5.38;;;1.55;;
55879;SDS011;41802;51.564;-1.838;2023-07-20T10:03:21;4.37;;;1.50;;
55879;SDS011;41802;51.564;-1.838;2023-07-20T10:05:51;4.72;;;1.80;;
55879;SDS011;41802;51.564;-1.838;2023-07-20T10:08:20;6.07;;;1.80;;
55879;SDS011;41802;51.564;-1.838;2023-07-20T10:10:54;4.13;;;1.55;;
55879;SDS011;41802;51.564;-1.838;2023-07-20T10:13:25;6.05;;;1.67;;
55879;SDS011;41802;51.564;-1.838;2023-07-20T10:15:53;4.00;;;1.20;;
55879;SDS011;41802;51.564;-1.838;2023-07-20T10:18:23;3.63;;;1.03;;
55879;SDS011;41802;51.564;-1.838;2023-07-20T10:20:52;4.00;;;1.10;;
55879;SDS011;41802;51.564;-1.838;2023-07-20T10:23:24;4.18;;;1.38;;
55879;SDS011;41802;51.564;-1.838;2023-07-20T10:25:53;4.35;;;1.42;;
55879;SDS011;41802;51.564;-1.838;2023-07-20T10:28:26;4.20;;;1.58;;
55879;SDS011;41802;51.564;-1.838;2023-07-20T10:30:54;4.00;;;1.40;;
55879;SDS011;41802;51.564;-1.838;2023-07-20T10:33:23;4.78;;;1.42;;
55879;SDS011;41802;51.564;-1.838;2023-07-20T10:35:51;5.10;;;1.48;;
55879;SDS011;41802;51.564;-1.838;2023-07-20T10:38:19;4.22;;;1.35;;
55879;SDS011;41802;51.564;-1.838;2023-07-20T10:40:54;4.82;;;1.60;;
55879;SDS011;41802;51.564;-1.838;2023-07-20T10:43:23;4.90;;;1.77;;
55879;SDS011;41802;51.564;-1.838;2023-07-20T10:45:52;4.68;;;1.30;;
55879;SDS011;41802;51.564;-1.838;2023-07-20T10:48:21;4.10;;;1.35;;
55879;SDS011;41802;51.564;-1.838;2023-07-20T10:53:31;5.72;;;1.30;;
55879;SDS011;41802;51.564;-1.838;2023-07-20T10:56:05;4.43;;;1.53;;
55879;SDS011;41802;51.564;-1.838;2023-07-20T10:58:35;4.80;;;1.05;;
55879;SDS011;41802;51.564;-1.838;2023-07-20T11:01:03;4.63;;;1.25;;
55879;SDS011;41802;51.564;-1.838;2023-07-20T11:03:34;5.50;;;1.50;;
55879;SDS011;41802;51.564;-1.838;2023-07-20T11:08:54;4.13;;;1.40;;
55879;SDS011;41802;51.564;-1.838;2023-07-20T11:11:23;4.70;;;1.33;;
55879;SDS011;41802;51.564;-1.838;2023-07-20T11:14:00;4.53;;;1.25;;
55879;SDS011;41802;51.564;-1.838;2023-07-20T11:16:32;4.88;;;1.60;;
55879;SDS011;41802;51.564;-1.838;2023-07-20T11:19:01;3.83;;;1.35;;
55879;SDS011;41802;51.564;-1.838;2023-07-20T11:21:29;5.80;;;1.87;;
55879;SDS011;41802;51.564;-1.838;2023-07-20T11:23:57;4.10;;;1.40;;
55879;SDS011;41802;51.564;-1.838;2023-07-20T11:26:25;3.78;;;1.20;;
55879;SDS011;41802;51.564;-1.838;2023-07-20T11:28:53;4.50;;;1.52;;
55879;SDS011;41802;51.564;-1.838;2023-07-20T11:31:22;5.18;;;1.33;;
55879;SDS011;41802;51.564;-1.838;2023-07-20T11:33:50;4.00;;;1.47;;
55879;SDS011;41802;51.564;-1.838;2023-07-20T11:36:18;3.95;;;1.58;;
55879;SDS011;41802;51.564;-1.838;2023-07-20T11:38:48;4.43;;;1.17;;
55879;SDS011;41802;51.564;-1.838;2023-07-20T11:41:16;5.25;;;1.58;;
55879;SDS011;41802;51.564;-1.838;2023-07-20T11:43:53;4.93;;;1.58;;
55879;SDS011;41802;51.564;-1.838;2023-07-20T11:46:22;4.17;;;1.37;;
55879;SDS011;41802;51.564;-1.838;2023-07-20T11:48:55;6.07;;;2.00;;
55879;SDS011;41802;51.564;-1.838;2023-07-20T11:51:24;3.85;;;1.55;;
55879;SDS011;41802;51.564;-1.838;2023-07-20T11:53:52;5.20;;;1.30;;
55879;SDS011;41802;51.564;-1.838;2023-07-20T11:56:20;6.57;;;1.52;;
55879;SDS011;41802;51.564;-1.838;2023-07-20T11:58:48;3.97;;;0.80;;
55879;SDS011;41802;51.564;-1.838;2023-07-20T12:01:17;4.18;;;1.33;;
55879;SDS011;41802;51.564;-1.838;2023-07-20T12:03:47;4.38;;;1.55;;
55879;SDS011;41802;51.564;-1.838;2023-07-20T12:06:15;4.20;;;1.33;;
55879;SDS011;41802;51.564;-1.838;2023-07-20T12:08:46;4.95;;;1.90;;
55879;SDS011;41802;51.564;-1.838;2023-07-20T12:11:29;4.17;;;1.50;;
55879;SDS011;41802;51.564;-1.838;2023-07-20T12:13:58;4.85;;;1.50;;
55879;SDS011;41802;51.564;-1.838;2023-07-20T12:16:41;4.13;;;1.20;;
55879;SDS011;41802;51.564;-1.838;2023-07-20T12:19:11;5.88;;;1.60;;
55879;SDS011;41802;51.564;-1.838;2023-07-20T12:21:39;5.38;;;1.70;;
55879;SDS011;41802;51.564;-1.838;2023-07-20T12:24:08;3.83;;;1.20;;
55879;SDS011;41802;51.564;-1.838;2023-07-20T12:26:36;4.47;;;1.48;;
55879;SDS011;41802;51.564;-1.838;2023-07-20T12:29:04;3.88;;;1.58;;
55879;SDS011;41802;51.564;-1.838;2023-07-20T12:31:34;6.82;;;1.50;;
55879;SDS011;41802;51.564;-1.838;2023-07-20T12:34:10;3.33;;;1.00;;
55879;SDS011;41802;51.564;-1.838;2023-07-20T12:36:40;4.83;;;0.97;;
55879;SDS011;41802;51.564;-1.838;2023-07-20T12:39:08;4.88;;;1.25;;
55879;SDS011;41802;51.564;-1.838;2023-07-20T12:41:36;4.15;;;1.50;;
55879;SDS011;41802;51.564;-1.838;2023-07-20T12:44:04;4.03;;;1.23;;
55879;SDS011;41802;51.564;-1.838;2023-07-20T12:46:32;4.22;;;1.17;;
55879;SDS011;41802;51.564;-1.838;2023-07-20T12:49:03;4.13;;;1.30;;
55879;SDS011;41802;51.564;-1.838;2023-07-20T12:51:31;4.20;;;1.55;;
55879;SDS011;41802;51.564;-1.838;2023-07-20T12:54:01;5.70;;;1.05;;
55879;SDS011;41802;51.564;-1.838;2023-07-20T12:56:28;5.72;;;1.17;;
55879;SDS011;41802;51.564;-1.838;2023-07-20T12:58:59;3.33;;;1.03;;
55879;SDS011;41802;51.564;-1.838;2023-07-20T13:01:29;4.63;;;1.15;;
55879;SDS011;41802;51.564;-1.838;2023-07-20T13:04:00;4.78;;;1.20;;
55879;SDS011;41802;51.564;-1.838;2023-07-20T13:06:32;4.75;;;1.45;;
55879;SDS011;41802;51.564;-1.838;2023-07-20T13:09:04;5.40;;;1.55;;
55879;SDS011;41802;51.564;-1.838;2023-07-20T13:11:31;3.70;;;1.20;;
55879;SDS011;41802;51.564;-1.838;2023-07-20T13:13:59;4.55;;;1.63;;
55879;SDS011;41802;51.564;-1.838;2023-07-20T13:16:27;4.97;;;1.50;;
55879;SDS011;41802;51.564;-1.838;2023-07-20T13:18:55;4.07;;;1.30;;
55879;SDS011;41802;51.564;-1.838;2023-07-20T13:21:24;3.95;;;1.35;;
55879;SDS011;41802;51.564;-1.838;2023-07-20T13:23:53;4.23;;;1.50;;
55879;SDS011;41802;51.564;-1.838;2023-07-20T13:26:22;4.20;;;1.40;;
55879;SDS011;41802;51.564;-1.838;2023-07-20T13:28:50;4.35;;;1.15;;
55879;SDS011;41802;51.564;-1.838;2023-07-20T13:31:19;4.55;;;1.55;;
55879;SDS011;41802;51.564;-1.838;2023-07-20T13:33:54;4.50;;;1.60;;
55879;SDS011;41802;51.564;-1.838;2023-07-20T13:36:26;4.43;;;1.80;;
55879;SDS011;41802;51.564;-1.838;2023-07-20T13:38:56;4.30;;;1.42;;
55879;SDS011;41802;51.564;-1.838;2023-07-20T13:41:27;7.28;;;1.38;;
55879;SDS011;41802;51.564;-1.838;2023-07-20T13:43:55;6.55;;;1.73;;
55879;SDS011;41802;51.564;-1.838;2023-07-20T13:46:40;4.00;;;1.10;;
55879;SDS011;41802;51.564;-1.838;2023-07-20T13:49:10;5.03;;;1.50;;
55879;SDS011;41802;51.564;-1.838;2023-07-20T13:51:48;4.93;;;1.40;;
55879;SDS011;41802;51.564;-1.838;2023-07-20T13:54:36;4.30;;;1.33;;
55879;SDS011;41802;51.564;-1.838;2023-07-20T13:57:14;8.27;;;2.20;;
55879;SDS011;41802;51.564;-1.838;2023-07-20T13:59:42;4.30;;;1.58;;
55879;SDS011;41802;51.564;-1.838;2023-07-20T14:02:10;5.20;;;1.40;;
55879;SDS011;41802;51.564;-1.838;2023-07-20T14:04:42;6.65;;;1.83;;
55879;SDS011;41802;51.564;-1.838;2023-07-20T14:07:10;5.68;;;1.90;;
55879;SDS011;41802;51.564;-1.838;2023-07-20T14:09:42;5.30;;;2.10;;
55879;SDS011;41802;51.564;-1.838;2023-07-20T14:12:14;4.43;;;1.83;;
55879;SDS011;41802;51.564;-1.838;2023-07-20T14:14:45;5.43;;;1.60;;
55879;SDS011;41802;51.564;-1.838;2023-07-20T14:17:13;4.55;;;1.75;;
55879;SDS011;41802;51.564;-1.838;2023-07-20T14:19:41;5.25;;;2.22;;
55879;SDS011;41802;51.564;-1.838;2023-07-20T14:22:09;4.78;;;2.20;;
55879;SDS011;41802;51.564;-1.838;2023-07-20T14:24:38;6.88;;;2.10;;
55879;SDS011;41802;51.564;-1.838;2023-07-20T14:27:06;5.60;;;2.00;;
55879;SDS011;41802;51.564;-1.838;2023-07-20T14:29:35;4.80;;;1.77;;
55879;SDS011;41802;51.564;-1.838;2023-07-20T14:32:03;5.97;;;1.70;;
55879;SDS011;41802;51.564;-1.838;2023-07-20T14:34:33;4.75;;;2.00;;
55879;SDS011;41802;51.564;-1.838;2023-07-20T14:37:05;6.05;;;1.70;;
55879;SDS011;41802;51.564;-1.838;2023-07-20T14:39:32;7.10;;;1.70;;
55879;SDS011;41802;51.564;-1.838;2023-07-20T14:42:00;5.32;;;2.00;;
55879;SDS011;41802;51.564;-1.838;2023-07-20T14:44:30;4.57;;;1.52;;
55879;SDS011;41802;51.564;-1.838;2023-07-20T14:47:01;5.07;;;1.75;;
55879;SDS011;41802;51.564;-1.838;2023-07-20T14:49:40;3.92;;;1.30;;
55879;SDS011;41802;51.564;-1.838;2023-07-20T14:52:08;4.40;;;1.57;;
55879;SDS011;41802;51.564;-1.838;2023-07-20T14:54:39;5.47;;;1.30;;
55879;SDS011;41802;51.564;-1.838;2023-07-20T14:57:07;5.32;;;1.95;;